sensor_id;sensor_type;location;lat;lon;timestamp;P1;durP1;ratioP1;P2;durP2;ratioP2
8584;SDS011;7180;52.742;11.420;2023-02-12T00:01:17;17.10;;;15.70;;
8584;SDS011;7180;52.742;11.420;2023-02-12T00:03:43;16.90;;;15.43;;
8584;SDS011;7180;52.742;11.420;2023-02-12T00:06:09;15.80;;;14.50;;
8584;SDS011;7180;52.742;11.420;2023-02-12T00:08:35;19.10;;;17.30;;
8584;SDS011;7180;52.742;11.420;2023-02-12T00:11:08;20.40;;;18.60;;
8584;SDS011;7180;52.742;11.420;2023-02-12T00:13:34;19.67;;;17.87;;
8584;SDS011;7180;52.742;11.420;2023-02-12T00:16:02;20.77;;;18.77;;
8584;SDS011;7180;52.742;11.420;2023-02-12T00:18:29;18.67;;;16.83;;
8584;SDS011;7180;52.742;11.420;2023-02-12T00:20:54;17.43;;;15.80;;
8584;SDS011;7180;52.742;11.420;2023-02-12T00:23:22;17.00;;;15.50;;
8584;SDS011;7180;52.742;11.420;2023-02-12T00:25:47;17.77;;;16.17;;
8584;SDS011;7180;52.742;11.420;2023-02-12T00:28:13;18.67;;;16.87;;
8584;SDS011;7180;52.742;11.420;2023-02-12T00:30:38;17.53;;;15.83;;
8584;SDS011;7180;52.742;11.420;2023-02-12T00:33:03;16.87;;;15.47;;
8584;SDS011;7180;52.742;11.420;2023-02-12T00:35:28;16.23;;;14.73;;
8584;SDS011;7180;52.742;11.420;2023-02-12T00:37:54;17.03;;;15.53;;
8584;SDS011;7180;52.742;11.420;2023-02-12T00:40:19;18.53;;;16.83;;
8584;SDS011;7180;52.742;11.420;2023-02-12T00:42:44;19.33;;;17.43;;
8584;SDS011;7180;52.742;11.420;2023-02-12T00:45:09;21.30;;;19.20;;
8584;SDS011;7180;52.742;11.420;2023-02-12T00:47:35;20.20;;;18.30;;
8584;SDS011;7180;52.742;11.420;2023-02-12T00:50:00;20.17;;;18.27;;
8584;SDS011;7180;52.742;11.420;2023-02-12T00:52:25;18.53;;;16.93;;
8584;SDS011;7180;52.742;11.420;2023-02-12T00:54:50;20.03;;;18.13;;
8584;SDS011;7180;52.742;11.420;2023-02-12T00:57:16;17.83;;;16.33;;
8584;SDS011;7180;52.742;11.420;2023-02-12T00:59:41;17.90;;;16.23;;
8584;SDS011;7180;52.742;11.420;2023-02-12T01:02:06;18.13;;;16.53;;
8584;SDS011;7180;52.742;11.420;2023-02-12T01:04:32;19.43;;;17.73;;
8584;SDS011;7180;52.742;11.420;2023-02-12T01:06:57;17.93;;;16.33;;
8584;SDS011;7180;52.742;11.420;2023-02-12T01:09:22;17.63;;;16.13;;
8584;SDS011;7180;52.742;11.420;2023-02-12T01:11:48;18.83;;;17.20;;
8584;SDS011;7180;52.742;11.420;2023-02-12T01:14:13;20.20;;;18.37;;
8584;SDS011;7180;52.742;11.420;2023-02-12T01:16:38;19.70;;;17.87;;
8584;SDS011;7180;52.742;11.420;2023-02-12T01:19:04;21.23;;;19.13;;
8584;SDS011;7180;52.742;11.420;2023-02-12T01:21:30;19.67;;;17.67;;
8584;SDS011;7180;52.742;11.420;2023-02-12T01:23:58;22.00;;;19.80;;
8584;SDS011;7180;52.742;11.420;2023-02-12T01:26:24;21.47;;;19.47;;
8584;SDS011;7180;52.742;11.420;2023-02-12T01:28:52;20.97;;;18.73;;
8584;SDS011;7180;52.742;11.420;2023-02-12T01:31:32;22.00;;;19.73;;
8584;SDS011;7180;52.742;11.420;2023-02-12T01:34:01;20.80;;;18.80;;
8584;SDS011;7180;52.742;11.420;2023-02-12T01:36:27;20.73;;;18.70;;
8584;SDS011;7180;52.742;11.420;2023-02-12T01:38:54;18.30;;;16.60;;
8584;SDS011;7180;52.742;11.420;2023-02-12T01:41:20;17.63;;;16.10;;
8584;SDS011;7180;52.742;11.420;2023-02-12T01:46:42;17.20;;;15.70;;
8584;SDS011;7180;52.742;11.420;2023-02-12T01:49:11;17.90;;;16.30;;
8584;SDS011;7180;52.742;11.420;2023-02-12T01:51:40;17.03;;;15.70;;
8584;SDS011;7180;52.742;11.420;2023-02-12T01:54:09;16.80;;;15.50;;
8584;SDS011;7180;52.742;11.420;2023-02-12T01:56:37;18.23;;;16.73;;
8584;SDS011;7180;52.742;11.420;2023-02-12T01:59:03;17.43;;;15.93;;
8584;SDS011;7180;52.742;11.420;2023-02-12T02:01:29;17.23;;;15.83;;
8584;SDS011;7180;52.742;11.420;2023-02-12T02:03:58;17.33;;;15.93;;
8584;SDS011;7180;52.742;11.420;2023-02-12T02:06:37;17.30;;;15.83;;
8584;SDS011;7180;52.742;11.420;2023-02-12T02:09:11;18.00;;;16.50;;
8584;SDS011;7180;52.742;11.420;2023-02-12T02:11:36;17.93;;;16.43;;
8584;SDS011;7180;52.742;11.420;2023-02-12T02:14:20;17.40;;;15.93;;
8584;SDS011;7180;52.742;11.420;2023-02-12T02:17:00;17.10;;;15.70;;
8584;SDS011;7180;52.742;11.420;2023-02-12T02:30:59;17.47;;;16.07;;
8584;SDS011;7180;52.742;11.420;2023-02-12T02:33:35;18.07;;;16.50;;
8584;SDS011;7180;52.742;11.420;2023-02-12T02:38:49;16.83;;;15.53;;
8584;SDS011;7180;52.742;11.420;2023-02-12T02:41:36;17.63;;;16.20;;
8584;SDS011;7180;52.742;11.420;2023-02-12T02:44:09;16.80;;;15.50;;
8584;SDS011;7180;52.742;11.420;2023-02-12T02:46:45;16.47;;;15.00;;
8584;SDS011;7180;52.742;11.420;2023-02-12T02:49:13;16.50;;;15.20;;
8584;SDS011;7180;52.742;11.420;2023-02-12T02:51:45;16.40;;;15.00;;
8584;SDS011;7180;52.742;11.420;2023-02-12T02:54:15;16.80;;;15.30;;
8584;SDS011;7180;52.742;11.420;2023-02-12T02:56:47;16.73;;;15.13;;
8584;SDS011;7180;52.742;11.420;2023-02-12T02:59:21;16.13;;;14.63;;
8584;SDS011;7180;52.742;11.420;2023-02-12T03:01:52;16.60;;;15.17;;
8584;SDS011;7180;52.742;11.420;2023-02-12T03:04:22;15.87;;;14.57;;
8584;SDS011;7180;52.742;11.420;2023-02-12T03:06:55;16.57;;;15.13;;
8584;SDS011;7180;52.742;11.420;2023-02-12T03:09:36;16.23;;;14.93;;
8584;SDS011;7180;52.742;11.420;2023-02-12T03:12:16;16.83;;;15.27;;
8584;SDS011;7180;52.742;11.420;2023-02-12T03:14:58;16.43;;;15.10;;
8584;SDS011;7180;52.742;11.420;2023-02-12T03:17:29;16.97;;;15.57;;
8584;SDS011;7180;52.742;11.420;2023-02-12T03:20:00;16.00;;;14.70;;
8584;SDS011;7180;52.742;11.420;2023-02-12T03:22:30;16.50;;;15.00;;
8584;SDS011;7180;52.742;11.420;2023-02-12T03:25:01;16.37;;;14.90;;
8584;SDS011;7180;52.742;11.420;2023-02-12T03:27:59;16.70;;;15.20;;
8584;SDS011;7180;52.742;11.420;2023-02-12T03:30:35;16.40;;;14.90;;
8584;SDS011;7180;52.742;11.420;2023-02-12T03:35:55;16.27;;;14.87;;
8584;SDS011;7180;52.742;11.420;2023-02-12T03:38:33;16.10;;;14.70;;
8584;SDS011;7180;52.742;11.420;2023-02-12T03:41:08;15.27;;;13.93;;
8584;SDS011;7180;52.742;11.420;2023-02-12T03:46:44;15.90;;;14.50;;
8584;SDS011;7180;52.742;11.420;2023-02-12T03:49:22;16.20;;;14.77;;
8584;SDS011;7180;52.742;11.420;2023-02-12T03:51:53;16.13;;;14.63;;
8584;SDS011;7180;52.742;11.420;2023-02-12T03:54:19;15.53;;;14.23;;
8584;SDS011;7180;52.742;11.420;2023-02-12T03:56:50;14.67;;;13.53;;
8584;SDS011;7180;52.742;11.420;2023-02-12T03:59:21;15.20;;;13.90;;
8584;SDS011;7180;52.742;11.420;2023-02-12T04:01:47;14.63;;;13.53;;
8584;SDS011;7180;52.742;11.420;2023-02-12T04:04:15;15.00;;;13.70;;
8584;SDS011;7180;52.742;11.420;2023-02-12T04:06:41;14.77;;;13.47;;
8584;SDS011;7180;52.742;11.420;2023-02-12T04:09:08;15.77;;;14.47;;
8584;SDS011;7180;52.742;11.420;2023-02-12T04:11:43;15.60;;;14.30;;
8584;SDS011;7180;52.742;11.420;2023-02-12T04:14:28;17.00;;;15.50;;
8584;SDS011;7180;52.742;11.420;2023-02-12T04:20:16;16.17;;;14.67;;
8584;SDS011;7180;52.742;11.420;2023-02-12T04:26:17;16.50;;;15.00;;
8584;SDS011;7180;52.742;11.420;2023-02-12T04:28:41;15.10;;;13.83;;
8584;SDS011;7180;52.742;11.420;2023-02-12T04:33:57;14.90;;;13.70;;
8584;SDS011;7180;52.742;11.420;2023-02-12T04:36:37;14.83;;;13.53;;
8584;SDS011;7180;52.742;11.420;2023-02-12T04:39:11;14.63;;;13.13;;
8584;SDS011;7180;52.742;11.420;2023-02-12T04:41:43;14.30;;;13.20;;
8584;SDS011;7180;52.742;11.420;2023-02-12T04:44:15;14.47;;;13.27;;
8584;SDS011;7180;52.742;11.420;2023-02-12T04:46:40;14.70;;;13.40;;
8584;SDS011;7180;52.742;11.420;2023-02-12T04:49:05;14.70;;;13.50;;
8584;SDS011;7180;52.742;11.420;2023-02-12T04:51:31;14.90;;;13.50;;
8584;SDS011;7180;52.742;11.420;2023-02-12T04:53:56;15.00;;;13.70;;
8584;SDS011;7180;52.742;11.420;2023-02-12T04:56:21;14.80;;;13.60;;
8584;SDS011;7180;52.742;11.420;2023-02-12T04:58:46;14.77;;;13.53;;
8584;SDS011;7180;52.742;11.420;2023-02-12T05:01:12;14.67;;;13.37;;
8584;SDS011;7180;52.742;11.420;2023-02-12T05:03:37;15.40;;;14.00;;
8584;SDS011;7180;52.742;11.420;2023-02-12T05:06:03;14.67;;;13.43;;
8584;SDS011;7180;52.742;11.420;2023-02-12T05:08:29;14.53;;;13.23;;
8584;SDS011;7180;52.742;11.420;2023-02-12T05:10:55;14.53;;;13.33;;
8584;SDS011;7180;52.742;11.420;2023-02-12T05:13:20;14.03;;;12.83;;
8584;SDS011;7180;52.742;11.420;2023-02-12T05:15:45;14.57;;;13.37;;
8584;SDS011;7180;52.742;11.420;2023-02-12T05:18:10;14.53;;;13.33;;
8584;SDS011;7180;52.742;11.420;2023-02-12T05:20:36;13.67;;;12.67;;
8584;SDS011;7180;52.742;11.420;2023-02-12T05:23:01;14.27;;;13.17;;
8584;SDS011;7180;52.742;11.420;2023-02-12T05:25:26;14.20;;;13.00;;
8584;SDS011;7180;52.742;11.420;2023-02-12T05:27:51;14.13;;;12.93;;
8584;SDS011;7180;52.742;11.420;2023-02-12T05:30:17;13.93;;;12.83;;
8584;SDS011;7180;52.742;11.420;2023-02-12T05:32:42;14.17;;;13.07;;
8584;SDS011;7180;52.742;11.420;2023-02-12T05:35:07;14.00;;;12.90;;
8584;SDS011;7180;52.742;11.420;2023-02-12T05:37:34;13.83;;;12.73;;
8584;SDS011;7180;52.742;11.420;2023-02-12T05:40:00;13.80;;;12.70;;
8584;SDS011;7180;52.742;11.420;2023-02-12T05:42:27;14.00;;;12.80;;
8584;SDS011;7180;52.742;11.420;2023-02-12T05:44:53;14.87;;;13.57;;
8584;SDS011;7180;52.742;11.420;2023-02-12T05:47:18;14.50;;;13.30;;
8584;SDS011;7180;52.742;11.420;2023-02-12T05:49:44;14.57;;;13.37;;
8584;SDS011;7180;52.742;11.420;2023-02-12T05:52:09;14.60;;;13.40;;
8584;SDS011;7180;52.742;11.420;2023-02-12T05:54:34;15.00;;;13.70;;
8584;SDS011;7180;52.742;11.420;2023-02-12T05:56:59;14.13;;;12.93;;
8584;SDS011;7180;52.742;11.420;2023-02-12T05:59:25;14.50;;;13.30;;
8584;SDS011;7180;52.742;11.420;2023-02-12T06:01:50;14.23;;;13.13;;
8584;SDS011;7180;52.742;11.420;2023-02-12T06:04:22;14.53;;;13.43;;
8584;SDS011;7180;52.742;11.420;2023-02-12T06:06:50;14.23;;;13.03;;
8584;SDS011;7180;52.742;11.420;2023-02-12T06:09:16;14.70;;;13.40;;
8584;SDS011;7180;52.742;11.420;2023-02-12T06:11:42;13.90;;;12.90;;
8584;SDS011;7180;52.742;11.420;2023-02-12T06:14:10;15.03;;;13.70;;
8584;SDS011;7180;52.742;11.420;2023-02-12T06:16:37;15.67;;;14.27;;
8584;SDS011;7180;52.742;11.420;2023-02-12T06:19:03;14.40;;;13.20;;
8584;SDS011;7180;52.742;11.420;2023-02-12T06:21:30;14.80;;;13.50;;
8584;SDS011;7180;52.742;11.420;2023-02-12T06:23:56;14.43;;;13.33;;
8584;SDS011;7180;52.742;11.420;2023-02-12T06:26:22;13.90;;;12.73;;
8584;SDS011;7180;52.742;11.420;2023-02-12T06:28:48;14.77;;;13.57;;
8584;SDS011;7180;52.742;11.420;2023-02-12T06:31:16;15.13;;;13.83;;
8584;SDS011;7180;52.742;11.420;2023-02-12T06:33:42;14.43;;;13.33;;
8584;SDS011;7180;52.742;11.420;2023-02-12T06:36:07;15.10;;;13.87;;
8584;SDS011;7180;52.742;11.420;2023-02-12T06:38:33;15.03;;;13.83;;
8584;SDS011;7180;52.742;11.420;2023-02-12T06:41:02;15.03;;;13.63;;
8584;SDS011;7180;52.742;11.420;2023-02-12T06:43:28;15.20;;;14.00;;
8584;SDS011;7180;52.742;11.420;2023-02-12T06:45:53;15.10;;;13.90;;
8584;SDS011;7180;52.742;11.420;2023-02-12T06:48:19;15.10;;;13.80;;
8584;SDS011;7180;52.742;11.420;2023-02-12T06:50:44;14.40;;;13.17;;
8584;SDS011;7180;52.742;11.420;2023-02-12T06:53:09;13.60;;;12.50;;
8584;SDS011;7180;52.742;11.420;2023-02-12T06:55:34;14.73;;;13.53;;
8584;SDS011;7180;52.742;11.420;2023-02-12T06:58:00;14.70;;;13.47;;
8584;SDS011;7180;52.742;11.420;2023-02-12T07:00:25;14.23;;;13.07;;
8584;SDS011;7180;52.742;11.420;2023-02-12T07:02:51;14.13;;;13.03;;
8584;SDS011;7180;52.742;11.420;2023-02-12T07:05:17;14.77;;;13.50;;
8584;SDS011;7180;52.742;11.420;2023-02-12T07:07:43;14.47;;;13.37;;
8584;SDS011;7180;52.742;11.420;2023-02-12T07:10:08;14.00;;;12.90;;
8584;SDS011;7180;52.742;11.420;2023-02-12T07:12:34;14.20;;;13.00;;
8584;SDS011;7180;52.742;11.420;2023-02-12T07:15:00;14.40;;;13.20;;
8584;SDS011;7180;52.742;11.420;2023-02-12T07:17:27;14.57;;;13.40;;
8584;SDS011;7180;52.742;11.420;2023-02-12T07:19:53;13.67;;;12.50;;
8584;SDS011;7180;52.742;11.420;2023-02-12T07:22:18;13.93;;;12.83;;
8584;SDS011;7180;52.742;11.420;2023-02-12T07:24:45;15.83;;;14.43;;
8584;SDS011;7180;52.742;11.420;2023-02-12T07:27:10;14.07;;;13.00;;
8584;SDS011;7180;52.742;11.420;2023-02-12T07:29:35;14.33;;;13.03;;
8584;SDS011;7180;52.742;11.420;2023-02-12T07:32:01;15.40;;;14.20;;
8584;SDS011;7180;52.742;11.420;2023-02-12T07:34:26;14.47;;;13.27;;
8584;SDS011;7180;52.742;11.420;2023-02-12T07:36:51;14.77;;;13.63;;
8584;SDS011;7180;52.742;11.420;2023-02-12T07:39:16;16.17;;;14.77;;
8584;SDS011;7180;52.742;11.420;2023-02-12T07:41:42;14.73;;;13.47;;
8584;SDS011;7180;52.742;11.420;2023-02-12T07:44:07;14.83;;;13.67;;
8584;SDS011;7180;52.742;11.420;2023-02-12T07:46:36;15.20;;;13.80;;
8584;SDS011;7180;52.742;11.420;2023-02-12T07:49:05;14.93;;;13.73;;
8584;SDS011;7180;52.742;11.420;2023-02-12T07:51:32;14.40;;;13.30;;
8584;SDS011;7180;52.742;11.420;2023-02-12T07:53:58;14.50;;;13.40;;
8584;SDS011;7180;52.742;11.420;2023-02-12T07:56:28;13.67;;;12.57;;
8584;SDS011;7180;52.742;11.420;2023-02-12T07:58:56;14.17;;;12.97;;
8584;SDS011;7180;52.742;11.420;2023-02-12T08:01:24;14.43;;;13.30;;
8584;SDS011;7180;52.742;11.420;2023-02-12T08:03:51;14.43;;;13.27;;
8584;SDS011;7180;52.742;11.420;2023-02-12T08:06:18;14.17;;;13.07;;
8584;SDS011;7180;52.742;11.420;2023-02-12T08:08:45;15.33;;;14.03;;
8584;SDS011;7180;52.742;11.420;2023-02-12T08:11:12;13.77;;;12.67;;
8584;SDS011;7180;52.742;11.420;2023-02-12T08:13:39;14.43;;;13.23;;
8584;SDS011;7180;52.742;11.420;2023-02-12T08:16:06;13.77;;;12.67;;
8584;SDS011;7180;52.742;11.420;2023-02-12T08:18:42;14.70;;;13.53;;
8584;SDS011;7180;52.742;11.420;2023-02-12T08:21:09;14.47;;;13.37;;
8584;SDS011;7180;52.742;11.420;2023-02-12T08:23:36;13.10;;;12.10;;
8584;SDS011;7180;52.742;11.420;2023-02-12T08:26:09;13.50;;;12.50;;
8584;SDS011;7180;52.742;11.420;2023-02-12T08:28:40;13.57;;;12.57;;
8584;SDS011;7180;52.742;11.420;2023-02-12T08:31:08;13.07;;;12.07;;
8584;SDS011;7180;52.742;11.420;2023-02-12T08:33:35;13.30;;;12.30;;
8584;SDS011;7180;52.742;11.420;2023-02-12T08:36:04;12.87;;;11.93;;
8584;SDS011;7180;52.742;11.420;2023-02-12T08:38:32;12.60;;;11.70;;
8584;SDS011;7180;52.742;11.420;2023-02-12T08:41:01;13.00;;;12.00;;
8584;SDS011;7180;52.742;11.420;2023-02-12T08:43:28;11.90;;;11.00;;
8584;SDS011;7180;52.742;11.420;2023-02-12T08:45:53;12.03;;;11.13;;
8584;SDS011;7180;52.742;11.420;2023-02-12T08:48:19;12.10;;;11.10;;
8584;SDS011;7180;52.742;11.420;2023-02-12T08:50:44;12.67;;;11.77;;
8584;SDS011;7180;52.742;11.420;2023-02-12T08:53:10;12.00;;;11.10;;
8584;SDS011;7180;52.742;11.420;2023-02-12T08:55:35;12.80;;;11.80;;
8584;SDS011;7180;52.742;11.420;2023-02-12T08:58:01;13.10;;;12.10;;
8584;SDS011;7180;52.742;11.420;2023-02-12T09:00:27;13.60;;;12.50;;
8584;SDS011;7180;52.742;11.420;2023-02-12T09:02:52;13.67;;;12.57;;
8584;SDS011;7180;52.742;11.420;2023-02-12T09:05:18;13.70;;;12.67;;
8584;SDS011;7180;52.742;11.420;2023-02-12T09:07:43;14.67;;;13.47;;
8584;SDS011;7180;52.742;11.420;2023-02-12T09:10:08;14.30;;;13.10;;
8584;SDS011;7180;52.742;11.420;2023-02-12T09:12:34;14.40;;;13.20;;
8584;SDS011;7180;52.742;11.420;2023-02-12T09:14:59;14.23;;;13.03;;
8584;SDS011;7180;52.742;11.420;2023-02-12T09:17:24;14.70;;;13.60;;
8584;SDS011;7180;52.742;11.420;2023-02-12T09:19:51;14.43;;;13.33;;
8584;SDS011;7180;52.742;11.420;2023-02-12T09:22:17;14.23;;;13.13;;
8584;SDS011;7180;52.742;11.420;2023-02-12T09:24:42;14.33;;;13.17;;
8584;SDS011;7180;52.742;11.420;2023-02-12T09:27:08;15.23;;;13.93;;
8584;SDS011;7180;52.742;11.420;2023-02-12T09:29:33;16.13;;;14.63;;
8584;SDS011;7180;52.742;11.420;2023-02-12T09:31:58;15.60;;;14.20;;
8584;SDS011;7180;52.742;11.420;2023-02-12T09:34:23;14.80;;;13.60;;
8584;SDS011;7180;52.742;11.420;2023-02-12T09:36:49;15.90;;;14.53;;
8584;SDS011;7180;52.742;11.420;2023-02-12T09:39:14;16.07;;;14.57;;
8584;SDS011;7180;52.742;11.420;2023-02-12T09:44:20;15.37;;;14.07;;
8584;SDS011;7180;52.742;11.420;2023-02-12T09:47:12;15.90;;;14.40;;
8584;SDS011;7180;52.742;11.420;2023-02-12T09:52:28;16.43;;;14.83;;
8584;SDS011;7180;52.742;11.420;2023-02-12T09:54:54;16.10;;;14.37;;
8584;SDS011;7180;52.742;11.420;2023-02-12T09:57:31;16.07;;;14.47;;
8584;SDS011;7180;52.742;11.420;2023-02-12T10:00:21;16.77;;;15.00;;
8584;SDS011;7180;52.742;11.420;2023-02-12T10:02:52;17.20;;;15.50;;
8584;SDS011;7180;52.742;11.420;2023-02-12T10:05:19;17.00;;;15.37;;
8584;SDS011;7180;52.742;11.420;2023-02-12T10:08:01;17.53;;;15.67;;
8584;SDS011;7180;52.742;11.420;2023-02-12T10:13:20;16.13;;;14.63;;
8584;SDS011;7180;52.742;11.420;2023-02-12T10:24:04;23.57;;;21.07;;
8584;SDS011;7180;52.742;11.420;2023-02-12T10:26:41;21.77;;;18.83;;
8584;SDS011;7180;52.742;11.420;2023-02-12T10:29:16;26.87;;;23.17;;
8584;SDS011;7180;52.742;11.420;2023-02-12T10:31:45;20.70;;;18.50;;
8584;SDS011;7180;52.742;11.420;2023-02-12T10:34:19;21.10;;;18.87;;
8584;SDS011;7180;52.742;11.420;2023-02-12T10:36:50;23.17;;;19.37;;
8584;SDS011;7180;52.742;11.420;2023-02-12T10:39:26;25.10;;;21.80;;
8584;SDS011;7180;52.742;11.420;2023-02-12T10:41:57;20.60;;;18.50;;
8584;SDS011;7180;52.742;11.420;2023-02-12T10:44:27;21.20;;;18.90;;
8584;SDS011;7180;52.742;11.420;2023-02-12T10:46:53;20.27;;;18.17;;
8584;SDS011;7180;52.742;11.420;2023-02-12T10:49:19;20.07;;;17.93;;
8584;SDS011;7180;52.742;11.420;2023-02-12T10:54:45;19.83;;;17.73;;
8584;SDS011;7180;52.742;11.420;2023-02-12T10:57:14;20.07;;;18.10;;
8584;SDS011;7180;52.742;11.420;2023-02-12T10:59:52;18.93;;;17.13;;
8584;SDS011;7180;52.742;11.420;2023-02-12T11:02:28;19.23;;;17.20;;
8584;SDS011;7180;52.742;11.420;2023-02-12T11:04:56;18.83;;;17.13;;
8584;SDS011;7180;52.742;11.420;2023-02-12T11:07:23;17.57;;;15.93;;
8584;SDS011;7180;52.742;11.420;2023-02-12T11:09:51;17.80;;;16.20;;
8584;SDS011;7180;52.742;11.420;2023-02-12T11:12:26;16.03;;;14.53;;
8584;SDS011;7180;52.742;11.420;2023-02-12T11:17:42;15.80;;;14.30;;
8584;SDS011;7180;52.742;11.420;2023-02-12T11:25:22;17.83;;;16.03;;
8584;SDS011;7180;52.742;11.420;2023-02-12T11:31:29;14.60;;;13.30;;
8584;SDS011;7180;52.742;11.420;2023-02-12T11:33:37;21.03;;;18.87;;
8584;SDS011;7180;52.742;11.420;2023-02-12T11:38:36;16.90;;;15.40;;
8584;SDS011;7180;52.742;11.420;2023-02-12T11:41:06;20.73;;;18.67;;
8584;SDS011;7180;52.742;11.420;2023-02-12T11:43:43;16.50;;;14.87;;
8584;SDS011;7180;52.742;11.420;2023-02-12T11:46:09;19.70;;;17.70;;
8584;SDS011;7180;52.742;11.420;2023-02-12T11:48:36;17.30;;;15.67;;
8584;SDS011;7180;52.742;11.420;2023-02-12T11:51:04;17.50;;;15.80;;
8584;SDS011;7180;52.742;11.420;2023-02-12T11:53:34;21.97;;;18.43;;
8584;SDS011;7180;52.742;11.420;2023-02-12T11:56:05;18.40;;;15.60;;
8584;SDS011;7180;52.742;11.420;2023-02-12T11:58:32;18.03;;;16.17;;
8584;SDS011;7180;52.742;11.420;2023-02-12T12:09:27;13.43;;;12.33;;
8584;SDS011;7180;52.742;11.420;2023-02-12T12:12:18;14.57;;;13.27;;
8584;SDS011;7180;52.742;11.420;2023-02-12T12:14:48;14.83;;;13.53;;
8584;SDS011;7180;52.742;11.420;2023-02-12T12:17:40;13.87;;;12.70;;
8584;SDS011;7180;52.742;11.420;2023-02-12T12:20:46;12.67;;;11.67;;
8584;SDS011;7180;52.742;11.420;2023-02-12T12:23:18;12.77;;;11.87;;
8584;SDS011;7180;52.742;11.420;2023-02-12T12:25:48;12.93;;;11.93;;
8584;SDS011;7180;52.742;11.420;2023-02-12T12:28:38;12.00;;;11.10;;
8584;SDS011;7180;52.742;11.420;2023-02-12T12:34:09;12.37;;;11.47;;
8584;SDS011;7180;52.742;11.420;2023-02-12T12:39:47;11.23;;;10.33;;
8584;SDS011;7180;52.742;11.420;2023-02-12T12:42:47;11.00;;;10.30;;
8584;SDS011;7180;52.742;11.420;2023-02-12T12:48:24;13.07;;;12.07;;
8584;SDS011;7180;52.742;11.420;2023-02-12T12:51:08;13.57;;;12.67;;
8584;SDS011;7180;52.742;11.420;2023-02-12T12:54:17;12.40;;;11.60;;
8584;SDS011;7180;52.742;11.420;2023-02-12T13:05:38;12.93;;;12.03;;
8584;SDS011;7180;52.742;11.420;2023-02-12T13:08:16;13.73;;;12.70;;
8584;SDS011;7180;52.742;11.420;2023-02-12T13:10:54;14.70;;;13.50;;
8584;SDS011;7180;52.742;11.420;2023-02-12T13:21:00;19.57;;;17.57;;
8584;SDS011;7180;52.742;11.420;2023-02-12T13:26:43;16.37;;;14.87;;
8584;SDS011;7180;52.742;11.420;2023-02-12T13:29:23;16.80;;;15.40;;
8584;SDS011;7180;52.742;11.420;2023-02-12T13:31:52;17.10;;;15.70;;
8584;SDS011;7180;52.742;11.420;2023-02-12T13:34:20;16.27;;;14.87;;
8584;SDS011;7180;52.742;11.420;2023-02-12T13:36:50;16.47;;;15.07;;
8584;SDS011;7180;52.742;11.420;2023-02-12T13:44:34;15.10;;;14.00;;
8584;SDS011;7180;52.742;11.420;2023-02-12T13:47:13;15.80;;;14.50;;
8584;SDS011;7180;52.742;11.420;2023-02-12T13:49:59;15.80;;;14.50;;
8584;SDS011;7180;52.742;11.420;2023-02-12T13:52:33;14.57;;;13.37;;
8584;SDS011;7180;52.742;11.420;2023-02-12T13:55:09;14.50;;;13.30;;
8584;SDS011;7180;52.742;11.420;2023-02-12T13:57:45;15.40;;;14.00;;
8584;SDS011;7180;52.742;11.420;2023-02-12T14:03:13;14.87;;;13.73;;
8584;SDS011;7180;52.742;11.420;2023-02-12T14:05:39;15.47;;;14.17;;
8584;SDS011;7180;52.742;11.420;2023-02-12T14:08:05;15.87;;;14.53;;
8584;SDS011;7180;52.742;11.420;2023-02-12T14:13:18;17.00;;;15.40;;
8584;SDS011;7180;52.742;11.420;2023-02-12T14:15:47;16.63;;;15.20;;
8584;SDS011;7180;52.742;11.420;2023-02-12T14:18:35;17.83;;;16.10;;
8584;SDS011;7180;52.742;11.420;2023-02-12T14:23:35;17.57;;;15.87;;
8584;SDS011;7180;52.742;11.420;2023-02-12T14:33:45;17.30;;;15.77;;
8584;SDS011;7180;52.742;11.420;2023-02-12T14:41:43;17.10;;;15.53;;
8584;SDS011;7180;52.742;11.420;2023-02-12T14:44:55;16.90;;;15.30;;
8584;SDS011;7180;52.742;11.420;2023-02-12T14:46:55;16.47;;;15.00;;
8584;SDS011;7180;52.742;11.420;2023-02-12T14:49:22;17.50;;;15.90;;
8584;SDS011;7180;52.742;11.420;2023-02-12T14:54:47;17.27;;;15.67;;
8584;SDS011;7180;52.742;11.420;2023-02-12T15:00:47;16.23;;;14.83;;
8584;SDS011;7180;52.742;11.420;2023-02-12T15:05:59;16.73;;;15.23;;
8584;SDS011;7180;52.742;11.420;2023-02-12T15:11:25;18.13;;;16.37;;
8584;SDS011;7180;52.742;11.420;2023-02-12T15:22:20;20.30;;;18.13;;
8584;SDS011;7180;52.742;11.420;2023-02-12T15:27:41;20.00;;;18.10;;
8584;SDS011;7180;52.742;11.420;2023-02-12T15:30:15;19.53;;;17.63;;
8584;SDS011;7180;52.742;11.420;2023-02-12T15:32:42;22.63;;;20.23;;
8584;SDS011;7180;52.742;11.420;2023-02-12T15:35:24;19.80;;;17.93;;
8584;SDS011;7180;52.742;11.420;2023-02-12T15:37:51;18.97;;;17.17;;
8584;SDS011;7180;52.742;11.420;2023-02-12T15:40:17;20.03;;;18.03;;
8584;SDS011;7180;52.742;11.420;2023-02-12T15:42:54;20.37;;;18.27;;
8584;SDS011;7180;52.742;11.420;2023-02-12T15:45:25;20.10;;;18.27;;
8584;SDS011;7180;52.742;11.420;2023-02-12T15:47:59;19.60;;;17.70;;
8584;SDS011;7180;52.742;11.420;2023-02-12T15:50:24;20.23;;;18.27;;
8584;SDS011;7180;52.742;11.420;2023-02-12T15:52:50;20.67;;;18.67;;
8584;SDS011;7180;52.742;11.420;2023-02-12T15:55:18;18.70;;;16.90;;
8584;SDS011;7180;52.742;11.420;2023-02-12T15:58:04;18.70;;;16.97;;
8584;SDS011;7180;52.742;11.420;2023-02-12T16:00:53;19.67;;;17.73;;
8584;SDS011;7180;52.742;11.420;2023-02-12T16:03:26;19.00;;;17.37;;
8584;SDS011;7180;52.742;11.420;2023-02-12T16:05:56;20.20;;;18.33;;
8584;SDS011;7180;52.742;11.420;2023-02-12T16:08:27;19.40;;;17.60;;
8584;SDS011;7180;52.742;11.420;2023-02-12T16:10:55;20.50;;;18.60;;
8584;SDS011;7180;52.742;11.420;2023-02-12T16:13:31;21.10;;;18.90;;
8584;SDS011;7180;52.742;11.420;2023-02-12T16:16:06;20.80;;;18.60;;
8584;SDS011;7180;52.742;11.420;2023-02-12T16:18:41;27.93;;;20.63;;
8584;SDS011;7180;52.742;11.420;2023-02-12T16:21:11;21.73;;;18.83;;
8584;SDS011;7180;52.742;11.420;2023-02-12T16:23:42;22.47;;;19.13;;
8584;SDS011;7180;52.742;11.420;2023-02-12T16:26:08;32.70;;;22.23;;
8584;SDS011;7180;52.742;11.420;2023-02-12T16:28:44;28.23;;;20.97;;
8584;SDS011;7180;52.742;11.420;2023-02-12T16:31:12;21.87;;;19.47;;
8584;SDS011;7180;52.742;11.420;2023-02-12T16:38:43;21.10;;;18.90;;
8584;SDS011;7180;52.742;11.420;2023-02-12T16:41:20;22.80;;;20.40;;
8584;SDS011;7180;52.742;11.420;2023-02-12T16:46:26;23.43;;;20.97;;
8584;SDS011;7180;52.742;11.420;2023-02-12T16:48:53;26.53;;;20.63;;
8584;SDS011;7180;52.742;11.420;2023-02-12T16:51:21;23.50;;;20.97;;
8584;SDS011;7180;52.742;11.420;2023-02-12T16:53:58;24.70;;;21.77;;
8584;SDS011;7180;52.742;11.420;2023-02-12T16:56:26;24.33;;;21.63;;
8584;SDS011;7180;52.742;11.420;2023-02-12T16:58:57;26.83;;;22.37;;
8584;SDS011;7180;52.742;11.420;2023-02-12T17:01:26;27.03;;;21.43;;
8584;SDS011;7180;52.742;11.420;2023-02-12T17:03:53;27.30;;;21.93;;
8584;SDS011;7180;52.742;11.420;2023-02-12T17:06:20;26.07;;;21.63;;
8584;SDS011;7180;52.742;11.420;2023-02-12T17:08:47;29.47;;;22.40;;
8584;SDS011;7180;52.742;11.420;2023-02-12T17:11:13;28.77;;;22.73;;
8584;SDS011;7180;52.742;11.420;2023-02-12T17:13:41;31.80;;;22.17;;
8584;SDS011;7180;52.742;11.420;2023-02-12T17:16:07;30.47;;;22.43;;
8584;SDS011;7180;52.742;11.420;2023-02-12T17:18:33;31.10;;;24.37;;
8584;SDS011;7180;52.742;11.420;2023-02-12T17:21:01;29.17;;;22.37;;
8584;SDS011;7180;52.742;11.420;2023-02-12T17:23:28;25.43;;;20.77;;
8584;SDS011;7180;52.742;11.420;2023-02-12T17:25:54;25.63;;;20.57;;
8584;SDS011;7180;52.742;11.420;2023-02-12T17:28:20;28.90;;;22.97;;